createdAt,value
2018-07-12T00:02:14.119Z,17.94
2018-07-12T00:04:41.191Z,17.96
2018-07-12T00:07:08.258Z,17.95
2018-07-12T00:09:35.346Z,17.92
2018-07-12T00:12:02.402Z,17.86
2018-07-12T00:14:29.538Z,17.89
2018-07-12T00:16:56.757Z,17.89
2018-07-12T00:19:23.829Z,17.83
2018-07-12T00:21:50.897Z,17.83
2018-07-12T00:24:17.973Z,17.84
2018-07-12T00:26:45.130Z,17.83
2018-07-12T00:29:12.208Z,17.84
2018-07-12T00:31:39.270Z,17.85
2018-07-12T00:34:06.341Z,17.80
2018-07-12T00:36:33.413Z,17.78
2018-07-12T00:39:00.482Z,17.73
2018-07-12T00:41:27.554Z,17.73
2018-07-12T00:43:54.622Z,17.72
2018-07-12T00:46:21.692Z,17.68
2018-07-12T00:48:48.753Z,17.66
2018-07-12T00:51:15.840Z,17.68
2018-07-12T00:53:42.905Z,17.65
2018-07-12T00:56:09.971Z,17.65
2018-07-12T00:58:37.041Z,17.62
2018-07-12T01:01:04.118Z,17.56
2018-07-12T01:03:31.190Z,17.55
2018-07-12T01:05:58.261Z,17.56
2018-07-12T01:08:25.327Z,17.55
2018-07-12T01:10:52.397Z,17.58
2018-07-12T01:13:19.462Z,17.60
2018-07-12T01:15:46.548Z,17.57
2018-07-12T01:18:13.627Z,17.50
2018-07-12T01:20:40.710Z,17.46
2018-07-12T01:23:07.792Z,17.38
2018-07-12T01:25:34.863Z,17.41
2018-07-12T01:28:01.930Z,17.41
2018-07-12T01:30:28.998Z,17.37
2018-07-12T01:32:56.117Z,17.36
2018-07-12T01:35:23.189Z,17.35
2018-07-12T01:37:50.265Z,17.36
2018-07-12T01:40:17.346Z,17.37
2018-07-12T01:42:44.474Z,17.32
2018-07-12T01:45:11.687Z,17.28
2018-07-12T01:47:38.757Z,17.29
2018-07-12T01:50:06.110Z,17.31
2018-07-12T01:52:33.177Z,17.31
2018-07-12T01:55:00.247Z,17.28
2018-07-12T01:57:27.635Z,17.26
2018-07-12T01:59:54.698Z,17.25
2018-07-12T02:02:21.953Z,17.21
2018-07-12T02:04:49.027Z,17.19
2018-07-12T02:07:16.095Z,17.17
2018-07-12T02:09:43.157Z,17.13
2018-07-12T02:12:10.218Z,17.09
2018-07-12T02:14:37.301Z,17.09
2018-07-12T02:17:04.584Z,17.13
2018-07-12T02:19:31.645Z,17.14
2018-07-12T02:21:58.723Z,17.16
2018-07-12T02:24:25.789Z,17.13
2018-07-12T02:26:52.877Z,17.11
2018-07-12T02:29:19.939Z,17.09
2018-07-12T02:31:47.001Z,17.05
2018-07-12T02:34:14.061Z,17.03
2018-07-12T02:36:41.134Z,17.05
2018-07-12T02:39:08.201Z,17.06
2018-07-12T02:41:35.267Z,17.03
2018-07-12T02:44:02.333Z,17.01
2018-07-12T02:46:29.406Z,16.99
2018-07-12T02:48:56.478Z,17.03
2018-07-12T02:51:23.554Z,17.05
2018-07-12T02:53:50.639Z,17.03
2018-07-12T02:56:17.696Z,17.05
2018-07-12T02:58:44.770Z,17.05
2018-07-12T03:01:11.839Z,17.00
2018-07-12T03:03:38.913Z,17.00
2018-07-12T03:06:05.995Z,16.93
2018-07-12T03:08:33.314Z,16.92
2018-07-12T03:11:00.789Z,16.92
2018-07-12T03:13:28.126Z,16.92
2018-07-12T03:15:55.234Z,16.90
2018-07-12T03:18:22.301Z,16.88
2018-07-12T03:20:49.376Z,16.84
2018-07-12T03:23:16.445Z,16.85
2018-07-12T03:25:43.506Z,16.87
2018-07-12T03:28:10.578Z,16.84
2018-07-12T03:30:37.757Z,16.86
2018-07-12T03:33:04.828Z,16.88
2018-07-12T03:35:31.925Z,16.86
2018-07-12T03:37:59.206Z,16.88
2018-07-12T03:40:26.343Z,16.92
2018-07-12T03:42:53.342Z,16.94
2018-07-12T03:45:20.667Z,16.93
2018-07-12T03:47:47.911Z,16.90
2018-07-12T03:50:14.983Z,16.89
2018-07-12T03:52:42.152Z,16.89
2018-07-12T03:55:09.221Z,16.90
2018-07-12T03:57:36.289Z,16.89
2018-07-12T04:00:04.469Z,16.81
2018-07-12T04:02:31.537Z,16.77
2018-07-12T04:04:58.601Z,16.80
2018-07-12T04:07:25.705Z,16.82
2018-07-12T04:09:52.978Z,16.80
2018-07-12T04:12:20.090Z,16.79
2018-07-12T04:14:47.182Z,16.77
2018-07-12T04:17:24.353Z,16.75
2018-07-12T04:19:51.550Z,16.75
2018-07-12T04:22:18.618Z,16.75
2018-07-12T04:24:45.673Z,16.75
2018-07-12T04:27:12.742Z,16.77
2018-07-12T04:29:40.111Z,16.77
2018-07-12T04:32:07.173Z,16.72
2018-07-12T04:34:34.261Z,16.69
2018-07-12T04:37:01.357Z,16.72
2018-07-12T04:39:28.417Z,16.68
2018-07-12T04:41:55.750Z,16.65
2018-07-12T04:44:23.309Z,16.67
2018-07-12T04:46:50.382Z,16.64
2018-07-12T04:49:17.575Z,16.62
2018-07-12T04:51:44.659Z,16.63
2018-07-12T04:54:11.912Z,16.63
2018-07-12T04:56:38.977Z,16.69
2018-07-12T04:59:06.074Z,16.71
2018-07-12T05:01:33.176Z,16.73
2018-07-12T05:04:00.400Z,16.75
2018-07-12T05:06:27.475Z,16.76
2018-07-12T05:08:54.797Z,16.79
2018-07-12T05:11:22.513Z,16.85
2018-07-12T05:13:50.044Z,16.85
2018-07-12T05:16:17.133Z,16.86
2018-07-12T05:18:44.178Z,16.91
2018-07-12T05:21:11.250Z,16.94
2018-07-12T05:23:38.329Z,17.00
2018-07-12T05:26:05.454Z,17.05
2018-07-12T05:28:32.647Z,17.13
2018-07-12T05:30:59.791Z,17.14
2018-07-12T05:33:27.223Z,17.16
2018-07-12T05:35:55.309Z,17.17
2018-07-12T05:38:23.378Z,17.20
2018-07-12T05:40:51.526Z,17.24
2018-07-12T05:43:19.567Z,17.36
2018-07-12T05:45:48.182Z,17.42
2018-07-12T05:48:16.281Z,17.50
2018-07-12T05:50:47.197Z,17.57
2018-07-12T05:53:16.133Z,17.57
2018-07-12T05:55:44.245Z,17.60
2018-07-12T05:58:12.584Z,17.61
2018-07-12T06:00:41.505Z,17.73
2018-07-12T06:03:09.793Z,17.77
2018-07-12T06:05:37.994Z,17.71
2018-07-12T06:08:06.059Z,17.82
2018-07-12T06:10:34.634Z,17.95
2018-07-12T06:13:02.726Z,18.02
2018-07-12T06:15:30.893Z,18.04
2018-07-12T06:17:59.049Z,18.06
2018-07-12T06:20:27.109Z,18.09
2018-07-12T06:22:55.153Z,18.16
2018-07-12T06:25:23.207Z,18.28
2018-07-12T06:27:51.268Z,18.34
2018-07-12T06:30:19.350Z,18.37
2018-07-12T06:32:47.402Z,18.36
2018-07-12T06:35:15.471Z,18.37
2018-07-12T06:37:43.566Z,18.44
2018-07-12T06:40:11.613Z,18.57
2018-07-12T06:42:39.899Z,18.71
2018-07-12T06:45:08.241Z,18.77
2018-07-12T06:47:36.281Z,18.78
2018-07-12T06:50:04.867Z,18.77
2018-07-12T06:52:32.921Z,18.86
2018-07-12T06:55:01.152Z,19.00
2018-07-12T06:57:29.555Z,19.07
2018-07-12T06:59:57.748Z,19.09
2018-07-12T07:02:26.066Z,19.05
2018-07-12T07:04:54.219Z,19.05
2018-07-12T07:07:22.353Z,19.00
2018-07-12T07:09:50.417Z,19.04
2018-07-12T07:12:18.473Z,19.06
2018-07-12T07:14:46.675Z,19.06
2018-07-12T07:17:14.910Z,19.11
2018-07-12T07:19:42.961Z,19.20
2018-07-12T07:22:11.043Z,19.29
2018-07-12T07:24:39.103Z,19.30
2018-07-12T07:27:07.305Z,19.32
2018-07-12T07:29:35.457Z,19.30
2018-07-12T07:32:03.889Z,19.25
2018-07-12T07:34:31.928Z,19.27
2018-07-12T07:37:00.284Z,19.34
2018-07-12T07:39:28.313Z,19.43
2018-07-12T07:41:56.595Z,19.41
2018-07-12T07:44:24.623Z,19.47
2018-07-12T07:46:52.669Z,19.45
2018-07-12T07:49:20.767Z,19.43
2018-07-12T07:51:48.905Z,19.48
2018-07-12T07:54:16.922Z,19.52
2018-07-12T07:56:44.996Z,19.46
2018-07-12T07:59:13.029Z,19.43
2018-07-12T08:01:41.218Z,19.47
2018-07-12T08:04:09.269Z,19.54
2018-07-12T08:06:37.288Z,19.63
2018-07-12T08:09:06.436Z,19.66
2018-07-12T08:11:34.516Z,19.73
2018-07-12T08:14:02.544Z,19.78
2018-07-12T08:16:30.566Z,19.71
2018-07-12T08:18:58.587Z,19.81
2018-07-12T08:21:26.619Z,19.88
2018-07-12T08:23:56.886Z,19.93
2018-07-12T08:26:30.437Z,20.03
2018-07-12T08:28:58.580Z,20.13
2018-07-12T08:31:26.609Z,20.10
2018-07-12T08:33:54.712Z,20.12
2018-07-12T08:36:22.724Z,20.23
2018-07-12T08:38:50.748Z,20.40
2018-07-12T08:41:18.929Z,20.48
2018-07-12T08:43:46.952Z,20.62
2018-07-12T08:46:14.999Z,20.76
2018-07-12T08:48:43.021Z,20.89
2018-07-12T08:51:13.365Z,20.96
2018-07-12T08:53:41.405Z,21.14
2018-07-12T08:56:09.517Z,21.28
2018-07-12T08:58:37.571Z,21.36
2018-07-12T09:01:05.854Z,21.47
2018-07-12T09:03:33.885Z,21.61
2018-07-12T09:06:01.925Z,21.84
2018-07-12T09:08:30.109Z,22.07
2018-07-12T09:10:58.158Z,22.37
2018-07-12T09:13:26.180Z,22.38
2018-07-12T09:15:54.213Z,22.45
2018-07-12T09:18:22.541Z,22.74
2018-07-12T09:20:50.604Z,23.10
2018-07-12T09:23:18.661Z,23.39
2018-07-12T09:25:46.702Z,23.66
2018-07-12T09:28:16.465Z,23.79
2018-07-12T09:30:44.708Z,23.88
2018-07-12T09:33:12.709Z,24.02
2018-07-12T09:35:41.716Z,24.20
2018-07-12T09:38:22.618Z,24.43
2018-07-12T09:40:50.691Z,24.67
2018-07-12T09:43:18.726Z,24.81
2018-07-12T09:45:46.782Z,24.72
2018-07-12T09:48:14.869Z,24.90
2018-07-12T09:50:42.888Z,24.90
2018-07-12T09:53:10.951Z,24.87
2018-07-12T09:55:51.618Z,25.17
2018-07-12T09:58:26.673Z,25.33
2018-07-12T10:01:00.266Z,25.44
2018-07-12T10:03:33.612Z,25.33
2018-07-12T10:06:01.811Z,25.54
2018-07-12T10:08:35.111Z,25.66
2018-07-12T10:11:07.247Z,25.67
2018-07-12T10:13:40.726Z,26.01
2018-07-12T10:16:14.279Z,26.19
2018-07-12T10:18:42.349Z,26.45
2018-07-12T10:21:10.408Z,26.66
2018-07-12T10:23:38.695Z,26.63
2018-07-12T10:26:06.896Z,26.86
2018-07-12T10:28:35.150Z,26.79
2018-07-12T10:31:03.306Z,26.86
2018-07-12T10:33:31.381Z,26.83
2018-07-12T10:35:59.460Z,26.94
2018-07-12T10:38:27.532Z,27.05
2018-07-12T10:40:55.589Z,27.11
2018-07-12T10:43:23.640Z,27.03
2018-07-12T10:45:51.745Z,27.09
2018-07-12T10:48:19.818Z,27.32
2018-07-12T10:50:47.870Z,27.37
2018-07-12T10:53:16.054Z,27.44
2018-07-12T10:55:44.073Z,27.63
2018-07-12T10:58:12.398Z,27.73
2018-07-12T11:00:40.469Z,27.82
2018-07-12T11:03:08.578Z,27.96
2018-07-12T11:05:36.620Z,28.07
2018-07-12T11:08:05.022Z,28.27
2018-07-12T11:10:33.378Z,28.40
2018-07-12T11:13:18.092Z,28.35
2018-07-12T11:15:46.894Z,28.46
2018-07-12T11:18:15.024Z,28.61
2018-07-12T11:20:43.132Z,28.79
2018-07-12T11:23:11.232Z,28.67
2018-07-12T11:25:39.616Z,28.80
2018-07-12T11:28:07.721Z,28.95
2018-07-12T11:30:35.758Z,29.11
2018-07-12T11:33:16.793Z,29.07
2018-07-12T11:35:44.840Z,29.10
2018-07-12T11:38:12.891Z,29.13
2018-07-12T11:40:41.161Z,29.21
2018-07-12T11:43:09.347Z,29.21
2018-07-12T11:45:37.418Z,29.30
2018-07-12T11:48:05.889Z,29.63
2018-07-12T11:50:33.944Z,29.54
2018-07-12T11:53:02.023Z,29.40
2018-07-12T11:55:30.029Z,29.34
2018-07-12T11:57:58.068Z,29.44
2018-07-12T12:00:26.126Z,29.70
2018-07-12T12:02:54.192Z,29.95
2018-07-12T12:05:22.248Z,30.11
2018-07-12T12:07:50.381Z,30.24
2018-07-12T12:10:18.433Z,30.42
2018-07-12T12:12:46.504Z,30.36
2018-07-12T12:15:14.516Z,30.39
2018-07-12T12:17:42.608Z,30.17
2018-07-12T12:20:10.658Z,30.03
2018-07-12T12:22:38.702Z,29.99
2018-07-12T12:25:06.759Z,29.80
2018-07-12T12:27:35.035Z,29.68
2018-07-12T12:30:03.212Z,29.89
2018-07-12T12:32:31.353Z,30.01
2018-07-12T12:34:59.449Z,30.19
2018-07-12T12:37:27.489Z,30.33
2018-07-12T12:39:55.530Z,30.39
2018-07-12T12:42:23.568Z,30.51
2018-07-12T12:44:51.621Z,30.68
2018-07-12T12:47:19.637Z,30.58
2018-07-12T12:49:47.689Z,30.66
2018-07-12T12:52:15.846Z,30.71
2018-07-12T12:54:44.197Z,30.57
2018-07-12T12:57:12.274Z,30.26
2018-07-12T12:59:40.358Z,29.98
2018-07-12T13:02:08.429Z,29.59
2018-07-12T13:04:36.597Z,29.55
2018-07-12T13:07:04.989Z,29.61
2018-07-12T13:09:33.049Z,29.63
2018-07-12T13:12:01.141Z,29.74
2018-07-12T13:14:29.228Z,29.70
2018-07-12T13:16:57.261Z,29.52
2018-07-12T13:19:25.334Z,29.46
2018-07-12T13:21:53.481Z,29.37
2018-07-12T13:24:21.571Z,29.31
2018-07-12T13:26:49.685Z,29.10
2018-07-12T13:29:17.733Z,29.04
2018-07-12T13:31:45.766Z,28.99
2018-07-12T13:34:14.072Z,28.90
2018-07-12T13:36:42.417Z,28.83
2018-07-12T13:39:10.902Z,28.66
2018-07-12T13:41:38.977Z,28.62
2018-07-12T13:44:19.917Z,28.51
2018-07-12T13:46:49.085Z,28.41
2018-07-12T13:49:17.416Z,28.38
2018-07-12T13:51:47.024Z,28.32
2018-07-12T13:54:15.305Z,28.05
2018-07-12T13:56:43.356Z,27.99
2018-07-12T13:59:11.530Z,27.96
2018-07-12T14:01:39.567Z,27.98
2018-07-12T14:04:08.912Z,27.91
2018-07-12T14:06:37.010Z,27.87
2018-07-12T14:09:07.013Z,27.85
2018-07-12T14:11:35.185Z,27.92
2018-07-12T14:14:03.374Z,28.13
2018-07-12T14:16:31.437Z,28.26
2018-07-12T14:18:59.516Z,28.23
2018-07-12T14:21:27.521Z,28.21
2018-07-12T14:23:55.682Z,28.15
2018-07-12T14:26:23.886Z,28.09
2018-07-12T14:28:52.105Z,28.09
2018-07-12T14:31:20.161Z,28.07
2018-07-12T14:33:48.536Z,28.11
2018-07-12T14:36:16.573Z,28.03
2018-07-12T14:38:44.610Z,27.87
2018-07-12T14:41:12.887Z,27.81
2018-07-12T14:43:40.949Z,27.88
2018-07-12T14:46:09.117Z,27.87
2018-07-12T14:48:37.149Z,27.90
2018-07-12T14:51:05.185Z,27.93
2018-07-12T14:53:33.274Z,28.00
2018-07-12T14:56:01.403Z,28.10
2018-07-12T14:58:29.546Z,28.19
2018-07-12T15:00:57.576Z,28.31
2018-07-12T15:03:25.705Z,28.43
2018-07-12T15:05:53.744Z,28.53
2018-07-12T15:08:21.765Z,28.61
2018-07-12T15:10:50.113Z,28.73
2018-07-12T15:13:18.397Z,28.84
2018-07-12T15:15:46.553Z,28.95
2018-07-12T15:18:14.788Z,29.07
2018-07-12T15:20:43.088Z,29.23
2018-07-12T15:23:11.137Z,29.29
2018-07-12T15:25:39.258Z,29.43
2018-07-12T15:28:07.404Z,29.40
2018-07-12T15:30:35.409Z,29.41
2018-07-12T15:33:03.445Z,29.46
2018-07-12T15:35:31.532Z,29.48
2018-07-12T15:37:59.601Z,29.44
2018-07-12T15:40:27.646Z,29.58
2018-07-12T15:42:55.685Z,29.54
2018-07-12T15:45:23.817Z,29.49
2018-07-12T15:47:51.901Z,29.56
2018-07-12T15:50:21.136Z,29.53
2018-07-12T15:52:49.546Z,29.51
2018-07-12T15:55:17.586Z,29.50
2018-07-12T15:57:45.715Z,29.49
2018-07-12T16:00:13.793Z,29.49
2018-07-12T16:03:01.012Z,29.36
2018-07-12T16:05:29.103Z,29.01
2018-07-12T16:10:50.422Z,28.53
2018-07-12T16:13:18.497Z,28.41
2018-07-12T16:15:46.750Z,28.26
2018-07-12T16:18:14.962Z,28.16
2018-07-12T16:20:43.193Z,28.11
2018-07-12T16:23:11.222Z,28.06
2018-07-12T16:25:39.276Z,28.05
2018-07-12T16:28:07.318Z,28.02
2018-07-12T16:30:35.352Z,28.03
2018-07-12T16:33:03.488Z,27.92
2018-07-12T16:35:31.493Z,27.83
2018-07-12T16:37:59.552Z,27.73
2018-07-12T16:40:27.584Z,27.65
2018-07-12T16:42:55.626Z,27.52
2018-07-12T16:45:23.660Z,27.50
2018-07-12T16:47:51.708Z,27.38
2018-07-12T16:50:19.737Z,27.33
2018-07-12T16:52:47.778Z,27.34
2018-07-12T16:55:15.817Z,27.29
2018-07-12T16:57:43.958Z,27.25
2018-07-12T17:00:12.133Z,27.23
2018-07-12T17:02:40.737Z,27.21
2018-07-12T17:05:08.825Z,27.23
2018-07-12T17:07:36.990Z,27.27
2018-07-12T17:10:05.029Z,27.35
2018-07-12T17:12:33.325Z,27.42
2018-07-12T17:15:02.218Z,27.45
2018-07-12T17:17:30.245Z,27.53
2018-07-12T17:19:58.452Z,27.56
2018-07-12T17:22:26.647Z,27.53
2018-07-12T17:24:54.677Z,27.61
2018-07-12T17:27:22.736Z,27.60
2018-07-12T17:29:51.045Z,27.62
2018-07-12T17:32:19.104Z,27.58
2018-07-12T17:34:47.376Z,27.52
2018-07-12T17:37:15.412Z,27.48
2018-07-12T17:39:43.441Z,27.44
2018-07-12T17:42:12.082Z,27.34
2018-07-12T17:44:44.084Z,27.25
2018-07-12T17:47:12.793Z,27.14
2018-07-12T17:49:41.345Z,26.98
2018-07-12T17:52:10.442Z,26.84
2018-07-12T17:54:39.284Z,26.77
2018-07-12T17:57:07.823Z,26.66
2018-07-12T17:59:36.360Z,26.56
2018-07-12T18:02:04.527Z,26.48
2018-07-12T18:04:32.595Z,26.36
2018-07-12T18:07:00.638Z,26.31
2018-07-12T18:09:29.551Z,26.26
2018-07-12T18:11:57.585Z,26.30
2018-07-12T18:14:25.728Z,26.30
2018-07-12T18:16:53.932Z,26.32
2018-07-12T18:19:21.975Z,26.35
2018-07-12T18:21:51.318Z,26.34
2018-07-12T18:24:19.684Z,26.38
2018-07-12T18:26:47.950Z,26.42
2018-07-12T18:29:16.077Z,26.45
2018-07-12T18:31:44.954Z,26.43
2018-07-12T18:34:13.010Z,26.35
2018-07-12T18:36:41.078Z,26.30
2018-07-12T18:39:09.902Z,26.29
2018-07-12T18:41:38.210Z,26.22
2018-07-12T18:44:06.276Z,26.11
2018-07-12T18:46:34.349Z,26.08
2018-07-12T18:49:02.401Z,26.00
2018-07-12T18:51:32.617Z,25.83
2018-07-12T18:54:00.702Z,25.73
2018-07-12T18:56:28.957Z,25.72
2018-07-12T18:58:57.416Z,25.65
2018-07-12T19:01:25.482Z,25.47
2018-07-12T19:03:53.981Z,25.44
2018-07-12T19:06:22.058Z,25.40
2018-07-12T19:08:50.926Z,25.25
2018-07-12T19:11:19.015Z,25.13
2018-07-12T19:13:47.762Z,24.98
2018-07-12T19:16:16.130Z,24.96
2018-07-12T19:18:44.177Z,24.93
2018-07-12T19:21:12.225Z,24.84
2018-07-12T19:23:40.277Z,24.74
2018-07-12T19:26:08.322Z,24.67
2018-07-12T19:28:42.229Z,24.60
2018-07-12T19:31:11.182Z,24.50
2018-07-12T19:33:39.535Z,24.43
2018-07-12T19:36:08.186Z,24.35
2018-07-12T19:38:36.567Z,24.29
2018-07-12T19:41:04.867Z,24.17
2018-07-12T19:43:32.902Z,24.07
2018-07-12T19:46:01.402Z,24.00
2018-07-12T19:48:29.685Z,23.94
2018-07-12T19:50:57.729Z,23.85
2018-07-12T19:53:25.930Z,23.81
2018-07-12T19:55:53.992Z,23.78
2018-07-12T19:58:22.101Z,23.69
2018-07-12T20:00:50.144Z,23.55
2018-07-12T20:03:18.528Z,23.50
2018-07-12T20:05:46.761Z,23.45
2018-07-12T20:08:14.814Z,23.41
2018-07-12T20:10:43.344Z,23.36
2018-07-12T20:13:12.010Z,23.31
2018-07-12T20:15:40.439Z,23.25
2018-07-12T20:18:08.825Z,23.18
2018-07-12T20:20:37.218Z,23.09
2018-07-12T20:23:06.134Z,23.09
2018-07-12T20:25:35.152Z,23.06
2018-07-12T20:28:03.197Z,22.98
2018-07-12T20:30:31.236Z,22.91
2018-07-12T20:32:59.994Z,22.79
2018-07-12T20:35:28.313Z,22.76
2018-07-12T20:37:56.331Z,22.72
2018-07-12T20:40:24.463Z,22.69
2018-07-12T20:42:52.489Z,22.64
2018-07-12T20:45:20.516Z,22.57
2018-07-12T20:47:48.553Z,22.48
2018-07-12T20:50:16.581Z,22.44
2018-07-12T20:52:44.833Z,22.42
2018-07-12T20:55:12.885Z,22.36
2018-07-12T20:57:40.933Z,22.28
2018-07-12T21:00:08.972Z,22.26
2018-07-12T21:02:37.009Z,22.24
2018-07-12T21:05:05.046Z,22.23
2018-07-12T21:07:33.229Z,22.19
2018-07-12T21:10:01.932Z,22.16
2018-07-12T21:12:29.955Z,22.12
2018-07-12T21:14:58.027Z,22.03
2018-07-12T21:17:26.059Z,22.00
2018-07-12T21:19:54.828Z,21.94
2018-07-12T21:22:23.001Z,21.87
2018-07-12T21:24:51.039Z,21.85
2018-07-12T21:27:19.681Z,21.83
2018-07-12T21:29:47.716Z,21.75
2018-07-12T21:32:15.733Z,21.69
2018-07-12T21:34:43.767Z,21.61
2018-07-12T21:37:11.796Z,21.58
2018-07-12T21:39:39.817Z,21.49
2018-07-12T21:42:07.857Z,21.44
2018-07-12T21:44:35.899Z,21.39
2018-07-12T21:47:05.189Z,21.35
2018-07-12T21:49:33.212Z,21.26
2018-07-12T21:52:01.674Z,21.19
2018-07-12T21:54:29.764Z,21.13
2018-07-12T21:56:57.801Z,21.07
2018-07-12T21:59:26.130Z,20.96
2018-07-12T22:01:54.421Z,20.88
2018-07-12T22:04:22.437Z,20.84
2018-07-12T22:07:04.609Z,20.73
2018-07-12T22:09:32.837Z,20.64
2018-07-12T22:12:00.895Z,20.58
2018-07-12T22:14:28.929Z,20.55
2018-07-12T22:16:56.962Z,20.53
2018-07-12T22:19:24.991Z,20.50
2018-07-12T22:21:53.022Z,20.47
2018-07-12T22:24:21.061Z,20.41
2018-07-12T22:26:49.345Z,20.39
2018-07-12T22:29:17.368Z,20.39
2018-07-12T22:31:45.409Z,20.38
2018-07-12T22:34:13.433Z,20.37
2018-07-12T22:36:41.481Z,20.37
2018-07-12T22:39:09.501Z,20.37
2018-07-12T22:41:37.532Z,20.32
2018-07-12T22:44:05.757Z,20.26
2018-07-12T22:46:33.777Z,20.19
2018-07-12T22:49:01.939Z,20.12
2018-07-12T22:51:29.840Z,20.06
2018-07-12T22:53:57.856Z,20.02
2018-07-12T22:56:25.880Z,19.91
2018-07-12T22:58:53.904Z,19.86
2018-07-12T23:01:21.945Z,19.80
2018-07-12T23:03:49.961Z,19.70
2018-07-12T23:06:18.003Z,19.63
2018-07-12T23:08:46.014Z,19.61
2018-07-12T23:11:14.311Z,19.57
2018-07-12T23:13:42.340Z,19.52
2018-07-12T23:16:10.357Z,19.50
2018-07-12T23:18:38.388Z,19.45
2018-07-12T23:21:06.597Z,19.42
2018-07-12T23:23:34.624Z,19.38
2018-07-12T23:26:02.658Z,19.34
2018-07-12T23:28:30.697Z,19.31
2018-07-12T23:30:58.720Z,19.20
2018-07-12T23:33:26.749Z,19.07
2018-07-12T23:35:54.798Z,18.91
2018-07-12T23:38:22.828Z,18.82
2018-07-12T23:40:50.858Z,18.78
2018-07-12T23:43:18.895Z,18.71
2018-07-12T23:45:46.928Z,18.62
2018-07-12T23:48:14.963Z,18.58
2018-07-12T23:50:42.994Z,18.50
2018-07-12T23:53:11.026Z,18.51
2018-07-12T23:55:39.053Z,18.44
2018-07-12T23:58:07.098Z,18.34
